createdAt,value
2022-08-05T00:00:16.163Z,59.51
2022-08-05T00:02:50.794Z,59.24
2022-08-05T00:06:02.632Z,59.54
2022-08-05T00:08:35.113Z,59.66
2022-08-05T00:10:54.901Z,59.95
2022-08-05T00:13:38.421Z,61.22
2022-08-05T00:16:08.768Z,60.51
2022-08-05T00:18:38.168Z,61.08
2022-08-05T00:21:06.744Z,61.63
2022-08-05T00:23:46.229Z,61.67
2022-08-05T00:26:22.298Z,62.06
2022-08-05T00:28:50.332Z,62.63
2022-08-05T00:31:41.440Z,61.87
2022-08-05T00:34:54.740Z,61.53
2022-08-05T00:37:12.889Z,61.38
2022-08-05T00:39:44.245Z,61.55
2022-08-05T00:42:33.336Z,61.39
2022-08-05T00:45:00.938Z,61.44
2022-08-05T00:47:53.113Z,62.14
2022-08-05T00:50:17.393Z,62.28
2022-08-05T00:52:45.488Z,62.80
2022-08-05T00:55:14.921Z,63.17
2022-08-05T00:57:58.100Z,63.19
2022-08-05T01:00:26.796Z,64.05
2022-08-05T01:02:54.541Z,63.93
2022-08-05T01:05:23.942Z,63.86
2022-08-05T01:08:40.528Z,63.86
2022-08-05T01:10:52.412Z,64.87
2022-08-05T01:13:27.168Z,65.25
2022-08-05T01:16:00.310Z,65.28
2022-08-05T01:18:33.999Z,65.70
2022-08-05T01:21:12.269Z,65.99
2022-08-05T01:24:03.261Z,65.43
2022-08-05T01:26:56.145Z,65.36
2022-08-05T01:29:30.782Z,66.13
2022-08-05T01:32:03.497Z,66.80
2022-08-05T01:34:36.043Z,66.88
2022-08-05T01:37:09.026Z,67.35
2022-08-05T01:39:47.092Z,67.73
2022-08-05T01:42:18.285Z,68.18
2022-08-05T01:44:54.240Z,68.11
2022-08-05T01:47:23.811Z,68.35
2022-08-05T01:50:00.113Z,68.07
2022-08-05T01:52:32.215Z,68.13
2022-08-05T01:55:04.699Z,68.74
2022-08-05T01:58:09.487Z,68.96
2022-08-05T02:00:30.595Z,68.60
2022-08-05T02:03:03.656Z,68.70
2022-08-05T02:05:35.969Z,69.00
2022-08-05T02:08:04.845Z,69.47
2022-08-05T02:10:41.533Z,70.14
2022-08-05T02:13:16.029Z,70.84
2022-08-05T02:15:48.620Z,72.29
2022-08-05T02:18:32.645Z,71.54
2022-08-05T02:21:14.998Z,70.34
2022-08-05T02:23:45.974Z,70.92
2022-08-05T02:26:17.207Z,71.48
2022-08-05T02:28:47.322Z,71.96
2022-08-05T02:31:28.426Z,72.93
2022-08-05T02:34:04.514Z,72.47
2022-08-05T02:36:35.626Z,71.96
2022-08-05T02:39:08.675Z,73.21
2022-08-05T02:41:43.161Z,73.02
2022-08-05T02:44:27.234Z,73.12
2022-08-05T02:47:00.186Z,73.40
2022-08-05T02:49:36.548Z,73.17
2022-08-05T02:52:08.829Z,74.31
2022-08-05T02:54:41.496Z,74.38
2022-08-05T02:58:09.708Z,74.45
2022-08-05T03:00:01.708Z,73.97
2022-08-05T03:02:35.454Z,74.35
2022-08-05T03:05:04.094Z,74.29
2022-08-05T03:08:00.670Z,74.58
2022-08-05T03:10:24.853Z,75.21
2022-08-05T03:12:53.463Z,75.15
2022-08-05T03:15:23.392Z,74.94
2022-08-05T03:17:54.248Z,74.94
2022-08-05T03:20:24.542Z,75.25
2022-08-05T03:22:53.143Z,75.41
2022-08-05T03:25:33.533Z,75.99
2022-08-05T03:28:13.905Z,76.58
2022-08-05T03:30:42.437Z,76.21
2022-08-05T03:33:11.843Z,76.50
2022-08-05T03:35:41.450Z,75.50
2022-08-05T03:38:11.695Z,75.43
2022-08-05T03:40:41.411Z,74.69
2022-08-05T03:43:58.688Z,75.16
2022-08-05T03:46:01.388Z,75.70
2022-08-05T03:48:35.613Z,76.55
2022-08-05T03:52:50.354Z,76.31
2022-08-05T03:56:02.018Z,75.68
2022-08-05T03:56:58.805Z,75.75
2022-08-05T03:59:46.841Z,75.75
2022-08-05T04:02:37.604Z,74.95
2022-08-05T04:05:09.876Z,75.11
2022-08-05T04:07:57.053Z,74.19
2022-08-05T04:10:28.300Z,74.20
2022-08-05T04:12:59.830Z,72.90
2022-08-05T04:15:32.966Z,69.49
2022-08-05T04:18:07.304Z,65.80
2022-08-05T04:20:38.456Z,62.91
2022-08-05T04:23:12.553Z,60.69
2022-08-05T04:26:00.372Z,57.67
2022-08-05T04:28:31.743Z,54.08
2022-08-05T04:31:00.959Z,51.98
2022-08-05T04:34:17.011Z,50.01
2022-08-05T04:36:49.871Z,47.96
2022-08-05T04:39:06.489Z,46.21
2022-08-05T04:41:36.893Z,44.61
2022-08-05T04:44:09.477Z,42.86
2022-08-05T04:46:37.951Z,41.84
2022-08-05T04:49:05.777Z,41.17
2022-08-05T04:51:41.277Z,39.97
2022-08-05T04:54:10.273Z,38.83
2022-08-05T04:56:39.566Z,37.76
2022-08-05T04:59:21.663Z,36.83
2022-08-05T05:02:06.712Z,35.89
2022-08-05T05:04:36.010Z,36.29
2022-08-05T05:07:09.338Z,35.85
2022-08-05T05:09:37.269Z,36.45
2022-08-05T05:12:06.394Z,37.19
2022-08-05T05:14:36.269Z,37.66
2022-08-05T05:17:07.572Z,39.54
2022-08-05T05:19:44.218Z,38.93
2022-08-05T05:22:23.672Z,37.94
2022-08-05T05:24:58.946Z,38.29
2022-08-05T05:27:45.168Z,39.94
2022-08-05T05:30:31.542Z,50.58
2022-08-05T05:33:08.783Z,50.79
2022-08-05T05:35:42.613Z,50.66
2022-08-05T05:38:12.921Z,53.18
2022-08-05T05:40:50.039Z,52.16
2022-08-05T05:43:27.646Z,49.87
2022-08-05T05:46:13.817Z,45.27
2022-08-05T05:48:44.230Z,40.20
2022-08-05T05:51:15.414Z,36.93
2022-08-05T05:53:54.111Z,33.96
2022-08-05T05:56:31.564Z,32.84
2022-08-05T05:59:03.604Z,34.65
2022-08-05T06:01:37.641Z,35.41
2022-08-05T06:04:06.108Z,36.27
2022-08-05T06:06:34.824Z,36.98
2022-08-05T06:09:05.033Z,36.30
2022-08-05T06:11:32.962Z,36.83
2022-08-05T06:14:00.777Z,36.10
2022-08-05T06:16:36.702Z,33.73
2022-08-05T06:19:07.536Z,32.64
2022-08-05T06:21:37.530Z,31.84
2022-08-05T06:24:12.133Z,32.09
2022-08-05T06:26:51.451Z,31.55
2022-08-05T06:29:26.489Z,30.88
2022-08-05T06:32:25.101Z,31.07
2022-08-05T06:34:56.605Z,31.31
2022-08-05T06:37:56.546Z,31.13
2022-08-05T06:40:18.050Z,31.37
2022-08-05T06:42:48.893Z,31.62
2022-08-05T06:45:21.360Z,31.96
2022-08-05T06:48:47.061Z,31.67
2022-08-05T06:50:55.475Z,31.01
2022-08-05T06:53:27.718Z,30.02
2022-08-05T06:55:58.138Z,31.06
2022-08-05T06:58:34.939Z,33.88
2022-08-05T07:01:06.944Z,33.39
2022-08-05T07:03:35.220Z,31.62
2022-08-05T07:06:05.757Z,30.81
2022-08-05T07:08:41.886Z,33.44
2022-08-05T07:11:15.069Z,34.38
2022-08-05T07:14:00.919Z,34.71
2022-08-05T07:17:57.100Z,35.39
2022-08-05T07:22:28.420Z,36.67
2022-08-05T07:24:59.251Z,36.33
2022-08-05T07:27:56.574Z,39.17
2022-08-05T07:30:28.428Z,40.31
2022-08-05T07:32:58.493Z,37.62
2022-08-05T07:35:55.908Z,36.21
2022-08-05T07:38:26.226Z,38.37
2022-08-05T07:41:16.577Z,38.99
2022-08-05T07:43:51.609Z,39.39
2022-08-05T07:46:25.197Z,38.34
2022-08-05T07:49:01.879Z,41.04
2022-08-05T07:51:37.044Z,40.72
2022-08-05T07:54:09.661Z,43.86
2022-08-05T07:57:00.476Z,43.18
2022-08-05T07:59:38.928Z,42.63
2022-08-05T08:02:16.001Z,43.02
2022-08-05T08:04:45.746Z,41.81
2022-08-05T08:07:13.559Z,42.96
2022-08-05T08:09:41.126Z,41.60
2022-08-05T08:12:19.878Z,41.69
2022-08-05T08:14:57.801Z,39.09
2022-08-05T08:17:30.513Z,39.13
2022-08-05T08:20:22.113Z,39.04
2022-08-05T08:22:51.804Z,38.48
2022-08-05T08:25:27.126Z,39.67
2022-08-05T08:28:07.059Z,39.24
2022-08-05T08:30:49.581Z,38.62
2022-08-05T08:33:17.631Z,39.03
2022-08-05T08:35:53.112Z,38.46
2022-08-05T08:38:35.262Z,37.78
2022-08-05T08:41:06.722Z,39.03
2022-08-05T08:45:18.161Z,39.02
2022-08-05T08:46:28.031Z,40.56
2022-08-05T08:49:06.196Z,40.09
2022-08-05T08:52:05.537Z,39.64
2022-08-05T08:54:34.071Z,37.87
2022-08-05T08:57:06.374Z,38.83
2022-08-05T08:59:42.057Z,37.92
2022-08-05T09:02:18.917Z,39.43
2022-08-05T09:04:58.604Z,38.48
2022-08-05T09:07:40.135Z,37.22
2022-08-05T09:10:27.020Z,38.16
2022-08-05T09:12:55.767Z,39.27
2022-08-05T09:15:23.748Z,39.16
2022-08-05T09:17:54.449Z,39.99
2022-08-05T09:20:37.450Z,39.62
2022-08-05T09:23:19.948Z,39.23
2022-08-05T09:26:02.613Z,39.32
2022-08-05T09:28:33.634Z,40.85
2022-08-05T09:31:22.732Z,38.68
2022-08-05T09:33:56.484Z,39.67
2022-08-05T09:36:27.828Z,40.22
2022-08-05T09:39:04.102Z,38.71
2022-08-05T09:41:59.715Z,39.42
2022-08-05T09:44:37.940Z,38.77
2022-08-05T09:47:14.101Z,37.42
2022-08-05T09:50:00.576Z,39.79
2022-08-05T09:52:31.039Z,39.47
2022-08-05T09:55:55.371Z,39.13
2022-08-05T09:57:48.384Z,39.45
2022-08-05T10:00:17.930Z,39.20
2022-08-05T10:02:49.185Z,38.67
2022-08-05T10:05:20.052Z,39.29
2022-08-05T10:08:36.830Z,38.38
2022-08-05T10:10:50.397Z,38.12
2022-08-05T10:13:45.779Z,37.57
2022-08-05T10:16:34.171Z,36.77
2022-08-05T10:19:08.627Z,36.57
2022-08-05T10:21:40.339Z,35.76
2022-08-05T10:24:10.919Z,35.90
2022-08-05T10:26:49.070Z,37.71
2022-08-05T10:29:23.541Z,38.99
2022-08-05T10:33:01.487Z,38.35
2022-08-05T10:35:00.801Z,38.30
2022-08-05T10:37:40.297Z,37.01
2022-08-05T10:40:27.804Z,35.35
2022-08-05T10:43:07.266Z,35.67
2022-08-05T10:45:42.185Z,35.26
2022-08-05T10:48:35.268Z,35.89
2022-08-05T10:51:22.224Z,35.20
2022-08-05T10:53:58.586Z,33.36
2022-08-05T10:56:30.590Z,34.13
2022-08-05T10:59:12.611Z,36.13
2022-08-05T11:02:08.579Z,35.20
2022-08-05T11:04:44.369Z,34.36
2022-08-05T11:07:15.455Z,35.32
2022-08-05T11:09:49.259Z,36.12
2022-08-05T11:12:54.405Z,33.50
2022-08-05T11:15:59.995Z,35.47
2022-08-05T11:18:26.867Z,35.22
2022-08-05T11:20:55.354Z,34.93
2022-08-05T11:23:49.797Z,32.84
2022-08-05T11:26:28.545Z,32.45
2022-08-05T11:29:11.691Z,30.90
2022-08-05T11:31:56.361Z,31.06
2022-08-05T11:34:39.754Z,34.94
2022-08-05T11:38:30.298Z,33.49
2022-08-05T11:40:00.700Z,34.41
2022-08-05T11:42:37.983Z,32.67
2022-08-05T11:45:14.506Z,32.58
2022-08-05T11:47:58.681Z,31.04
2022-08-05T11:50:26.752Z,32.24
2022-08-05T11:52:57.951Z,34.13
2022-08-05T11:55:32.164Z,32.12
2022-08-05T11:58:09.388Z,32.13
2022-08-05T12:00:41.171Z,32.68
2022-08-05T12:03:29.086Z,32.90
2022-08-05T12:06:00.688Z,32.50
2022-08-05T12:08:28.548Z,32.44
2022-08-05T12:11:05.473Z,32.39
2022-08-05T12:13:48.899Z,31.02
2022-08-05T12:16:19.866Z,29.69
2022-08-05T12:18:53.675Z,28.51
2022-08-05T12:21:24.176Z,28.73
2022-08-05T12:24:00.085Z,27.64
2022-08-05T12:26:32.894Z,26.74
2022-08-05T12:29:03.148Z,28.60
2022-08-05T12:31:40.618Z,28.85
2022-08-05T12:34:20.427Z,30.07
2022-08-05T12:36:50.663Z,28.73
2022-08-05T12:39:19.122Z,28.80
2022-08-05T12:41:46.877Z,26.71
2022-08-05T12:44:28.707Z,24.84
2022-08-05T12:47:02.437Z,25.32
2022-08-05T12:50:03.284Z,26.00
2022-08-05T12:52:33.908Z,29.24
2022-08-05T12:55:17.796Z,30.00
2022-08-05T12:58:50.349Z,30.39
2022-08-05T13:02:01.083Z,31.27
2022-08-05T13:03:32.073Z,31.23
2022-08-05T13:06:00.993Z,30.92
2022-08-05T13:08:32.435Z,31.11
2022-08-05T13:11:01.100Z,29.72
2022-08-05T13:14:05.712Z,28.45
2022-08-05T13:16:19.990Z,30.73
2022-08-05T13:18:54.950Z,28.70
2022-08-05T13:21:23.186Z,30.17
2022-08-05T13:23:56.297Z,30.12
2022-08-05T13:26:30.097Z,29.70
2022-08-05T13:28:59.287Z,29.09
2022-08-05T13:32:03.705Z,30.50
2022-08-05T13:34:21.945Z,29.18
2022-08-05T13:36:53.346Z,30.59
2022-08-05T13:40:13.489Z,29.35
2022-08-05T13:42:14.576Z,27.58
2022-08-05T13:44:45.371Z,29.31
2022-08-05T13:47:28.168Z,30.72
2022-08-05T13:50:09.547Z,29.44
2022-08-05T13:52:39.924Z,29.61
2022-08-05T13:55:09.687Z,28.59
2022-08-05T13:57:50.951Z,29.46
2022-08-05T14:00:27.655Z,28.67
2022-08-05T14:02:57.176Z,29.51
2022-08-05T14:05:48.107Z,29.79
2022-08-05T14:08:20.170Z,30.57
2022-08-05T14:10:48.262Z,31.50
2022-08-05T14:13:16.344Z,31.20
2022-08-05T14:16:07.267Z,30.60
2022-08-05T14:18:32.655Z,32.03
2022-08-05T14:21:00.323Z,30.78
2022-08-05T14:23:47.925Z,29.75
2022-08-05T14:26:35.822Z,27.79
2022-08-05T14:29:03.606Z,27.52
2022-08-05T14:32:03.832Z,29.70
2022-08-05T14:34:19.917Z,29.08
2022-08-05T14:36:51.391Z,29.04
2022-08-05T14:39:23.468Z,27.91
2022-08-05T14:42:16.687Z,27.94
2022-08-05T14:44:38.610Z,30.56
2022-08-05T14:47:06.403Z,29.11
2022-08-05T14:49:56.229Z,29.52
2022-08-05T14:52:50.073Z,28.74
2022-08-05T14:55:15.373Z,27.80
2022-08-05T14:57:54.823Z,27.43
2022-08-05T15:00:27.699Z,27.36
2022-08-05T15:02:55.985Z,29.56
2022-08-05T15:05:29.597Z,29.72
2022-08-05T15:08:11.407Z,29.95
2022-08-05T15:10:43.194Z,28.93
2022-08-05T15:13:13.649Z,29.29
2022-08-05T15:15:54.127Z,29.86
2022-08-05T15:18:22.347Z,29.48
2022-08-05T15:20:52.126Z,29.09
2022-08-05T15:23:20.036Z,30.30
2022-08-05T15:25:51.945Z,29.71
2022-08-05T15:28:27.148Z,30.15
2022-08-05T15:30:56.150Z,30.64
2022-08-05T15:34:18.849Z,30.41
2022-08-05T15:36:17.566Z,30.50
2022-08-05T15:41:04.793Z,30.79
2022-08-05T15:41:58.484Z,30.12
2022-08-05T15:44:27.506Z,30.26
2022-08-05T15:46:55.795Z,29.86
2022-08-05T15:49:53.644Z,29.85
2022-08-05T15:52:16.394Z,30.47
2022-08-05T15:54:45.021Z,31.52
2022-08-05T15:57:14.346Z,31.10
2022-08-05T15:59:43.844Z,30.44
2022-08-05T16:02:14.718Z,30.79
2022-08-05T16:04:47.208Z,30.54
2022-08-05T16:07:16.249Z,29.09
2022-08-05T16:09:45.558Z,29.57
2022-08-05T16:12:13.053Z,30.93
2022-08-05T16:14:43.538Z,31.17
2022-08-05T16:17:13.111Z,30.97
2022-08-05T16:20:05.075Z,30.72
2022-08-05T16:22:34.422Z,31.35
2022-08-05T16:25:07.859Z,31.59
2022-08-05T16:28:00.641Z,30.73
2022-08-05T16:30:26.615Z,31.00
2022-08-05T16:32:56.478Z,30.75
2022-08-05T16:35:27.855Z,30.63
2022-08-05T16:38:02.549Z,30.12
2022-08-05T16:40:51.636Z,28.96
2022-08-05T16:43:24.055Z,30.24
2022-08-05T16:46:03.824Z,30.75
2022-08-05T16:48:35.923Z,32.48
2022-08-05T16:51:08.712Z,31.37
2022-08-05T16:54:04.112Z,32.24
2022-08-05T16:56:29.184Z,32.56
2022-08-05T16:58:57.443Z,32.43
2022-08-05T17:01:25.120Z,32.91
2022-08-05T17:03:52.976Z,33.05
2022-08-05T17:06:20.457Z,32.97
2022-08-05T17:08:54.524Z,33.08
2022-08-05T17:11:23.945Z,32.28
2022-08-05T17:14:00.516Z,33.00
2022-08-05T17:16:36.541Z,32.72
2022-08-05T17:19:07.759Z,32.30
2022-08-05T17:21:39.700Z,32.05
2022-08-05T17:24:28.114Z,32.49
2022-08-05T17:26:57.914Z,33.52
2022-08-05T17:29:33.224Z,33.87
2022-08-05T17:32:01.662Z,34.32
2022-08-05T17:34:30.274Z,33.75
2022-08-05T17:37:00.178Z,34.24
2022-08-05T17:39:34.469Z,34.14
2022-08-05T17:42:17.324Z,33.83
2022-08-05T17:44:50.263Z,33.88
2022-08-05T17:47:22.573Z,33.93
2022-08-05T17:49:59.670Z,33.08
2022-08-05T17:52:30.784Z,33.94
2022-08-05T17:55:00.087Z,34.42
2022-08-05T17:57:27.891Z,34.64
2022-08-05T18:00:03.785Z,35.67
2022-08-05T18:02:33.270Z,35.03
2022-08-05T18:05:03.685Z,35.12
2022-08-05T18:07:41.954Z,35.37
2022-08-05T18:10:14.170Z,35.67
2022-08-05T18:12:49.344Z,36.08
2022-08-05T18:15:17.080Z,35.62
2022-08-05T18:18:00.598Z,35.92
2022-08-05T18:20:32.630Z,35.03
2022-08-05T18:23:09.587Z,34.76
2022-08-05T18:25:45.086Z,34.53
2022-08-05T18:28:16.574Z,34.22
2022-08-05T18:30:45.094Z,35.75
2022-08-05T18:33:13.712Z,38.27
2022-08-05T18:35:49.499Z,39.76
2022-08-05T18:38:27.250Z,40.71
2022-08-05T18:41:57.092Z,41.17
2022-08-05T18:43:49.149Z,40.65
2022-08-05T18:46:19.597Z,40.97
2022-08-05T18:48:51.973Z,40.95
2022-08-05T18:52:04.053Z,41.14
2022-08-05T18:54:25.626Z,41.32
2022-08-05T18:56:54.441Z,40.95
2022-08-05T18:59:42.025Z,41.22
2022-08-05T19:02:11.509Z,41.47
2022-08-05T19:05:02.477Z,41.27
2022-08-05T19:07:46.421Z,41.57
2022-08-05T19:10:14.776Z,41.33
2022-08-05T19:12:43.803Z,41.49
2022-08-05T19:15:58.045Z,41.33
2022-08-05T19:18:09.163Z,41.35
2022-08-05T19:20:41.742Z,41.97
2022-08-05T19:23:22.378Z,42.10
2022-08-05T19:26:01.643Z,42.47
2022-08-05T19:28:33.020Z,42.87
2022-08-05T19:31:01.039Z,42.46
2022-08-05T19:33:35.733Z,43.05
2022-08-05T19:36:06.146Z,43.85
2022-08-05T19:38:35.945Z,44.40
2022-08-05T19:41:07.288Z,44.98
2022-08-05T19:44:06.886Z,45.46
2022-08-05T19:46:29.207Z,46.65
2022-08-05T19:48:58.122Z,47.50
2022-08-05T19:51:59.778Z,47.45
2022-08-05T19:54:27.237Z,47.86
2022-08-05T19:56:59.355Z,48.86
2022-08-05T19:59:59.598Z,48.53
2022-08-05T20:02:17.388Z,49.07
2022-08-05T20:04:45.848Z,49.36
2022-08-05T20:07:14.061Z,49.65
2022-08-05T20:09:54.421Z,49.44
2022-08-05T20:12:23.743Z,49.84
2022-08-05T20:14:53.276Z,49.32
2022-08-05T20:17:23.561Z,49.89
2022-08-05T20:19:57.504Z,50.31
2022-08-05T20:22:27.302Z,50.76
2022-08-05T20:24:55.117Z,51.05
2022-08-05T20:27:27.050Z,51.33
2022-08-05T20:29:58.308Z,51.67
2022-08-05T20:32:27.574Z,52.20
2022-08-05T20:34:55.494Z,52.07
2022-08-05T20:38:04.796Z,51.92
2022-08-05T20:40:12.165Z,52.20
2022-08-05T20:42:39.713Z,53.23
2022-08-05T20:45:13.019Z,52.99
2022-08-05T20:47:40.557Z,53.29
2022-08-05T20:50:11.425Z,53.27
2022-08-05T20:52:41.374Z,53.76
2022-08-05T20:55:55.293Z,53.66
2022-08-05T20:57:57.233Z,54.58
2022-08-05T21:00:41.617Z,54.69
2022-08-05T21:03:13.524Z,54.90
2022-08-05T21:05:53.350Z,55.18
2022-08-05T21:08:26.617Z,55.67
2022-08-05T21:10:58.422Z,56.60
2022-08-05T21:13:47.539Z,57.23
2022-08-05T21:16:15.256Z,57.92
2022-08-05T21:18:45.191Z,58.29
2022-08-05T21:21:13.056Z,59.20
2022-08-05T21:23:40.548Z,60.41
2022-08-05T21:26:12.439Z,61.07
2022-08-05T21:28:47.944Z,61.27
2022-08-05T21:31:20.078Z,61.43
2022-08-05T21:33:49.607Z,61.79
2022-08-05T21:36:19.139Z,62.99
2022-08-05T21:38:55.562Z,62.83
2022-08-05T21:41:23.124Z,63.59
2022-08-05T21:44:01.666Z,63.26
2022-08-05T21:46:33.381Z,63.72
2022-08-05T21:49:02.250Z,64.36
2022-08-05T21:52:22.433Z,65.62
2022-08-05T21:54:30.726Z,64.96
2022-08-05T21:57:30.311Z,66.38
2022-08-05T22:00:03.297Z,66.67
2022-08-05T22:02:35.004Z,70.12
2022-08-05T22:05:04.387Z,79.26
2022-08-05T22:07:40.373Z,98.37
2022-08-05T22:10:26.603Z,100.00
2022-08-05T22:12:54.873Z,100.00
2022-08-05T22:16:01.425Z,100.00
2022-08-05T22:18:14.714Z,100.00
2022-08-05T22:20:44.116Z,100.00
2022-08-05T22:24:02.891Z,100.00
2022-08-05T22:26:34.218Z,100.00
2022-08-05T22:29:02.967Z,100.00
2022-08-05T22:31:31.591Z,100.00
2022-08-05T22:34:20.192Z,100.00
2022-08-05T22:36:56.099Z,100.00
2022-08-05T22:39:28.599Z,100.00
2022-08-05T22:42:10.273Z,100.00
2022-08-05T22:44:40.643Z,100.00
2022-08-05T22:47:11.179Z,100.00
2022-08-05T22:50:19.930Z,100.00
2022-08-05T22:52:32.244Z,100.00
2022-08-05T22:55:00.386Z,100.00
2022-08-05T22:57:36.302Z,100.00
2022-08-05T23:00:07.825Z,100.00
2022-08-05T23:02:36.177Z,100.00
2022-08-05T23:05:16.171Z,100.00
2022-08-05T23:07:45.100Z,100.00
2022-08-05T23:10:16.238Z,100.00
2022-08-05T23:12:48.004Z,100.00
2022-08-05T23:15:19.741Z,100.00
2022-08-05T23:18:01.263Z,100.00
2022-08-05T23:20:32.338Z,100.00
2022-08-05T23:23:00.028Z,100.00
2022-08-05T23:25:50.923Z,100.00
2022-08-05T23:28:15.804Z,100.00
2022-08-05T23:30:53.713Z,100.00
2022-08-05T23:34:02.742Z,100.00
2022-08-05T23:36:13.454Z,100.00
2022-08-05T23:38:41.768Z,100.00
2022-08-05T23:41:10.523Z,100.00
2022-08-05T23:44:05.897Z,100.00
2022-08-05T23:46:25.863Z,100.00
2022-08-05T23:48:59.943Z,100.00
2022-08-05T23:51:54.272Z,100.00
2022-08-05T23:54:33.989Z,100.00
2022-08-05T23:57:05.205Z,100.00
